sensor_id;sensor_type;location;lat;lon;timestamp;P1;durP1;ratioP1;P2;durP2;ratioP2
6149;SDS011;3106;42.670;23.318;2022-12-07T00:01:22;44.63;;;19.33;;
6149;SDS011;3106;42.670;23.318;2022-12-07T00:03:51;61.43;;;20.80;;
6149;SDS011;3106;42.670;23.318;2022-12-07T00:06:20;48.60;;;21.40;;
6149;SDS011;3106;42.670;23.318;2022-12-07T00:08:49;64.37;;;24.27;;
6149;SDS011;3106;42.670;23.318;2022-12-07T00:11:17;67.00;;;26.77;;
6149;SDS011;3106;42.670;23.318;2022-12-07T00:13:50;55.93;;;26.13;;
6149;SDS011;3106;42.670;23.318;2022-12-07T00:16:19;63.13;;;25.60;;
6149;SDS011;3106;42.670;23.318;2022-12-07T00:18:48;57.70;;;26.57;;
6149;SDS011;3106;42.670;23.318;2022-12-07T00:21:16;59.97;;;26.20;;
6149;SDS011;3106;42.670;23.318;2022-12-07T00:23:46;68.33;;;29.77;;
6149;SDS011;3106;42.670;23.318;2022-12-07T00:26:15;66.93;;;27.77;;
6149;SDS011;3106;42.670;23.318;2022-12-07T00:28:49;64.13;;;27.03;;
6149;SDS011;3106;42.670;23.318;2022-12-07T00:31:21;64.70;;;26.30;;
6149;SDS011;3106;42.670;23.318;2022-12-07T00:33:51;61.37;;;24.47;;
6149;SDS011;3106;42.670;23.318;2022-12-07T00:36:20;47.50;;;21.40;;
6149;SDS011;3106;42.670;23.318;2022-12-07T00:38:48;53.60;;;20.57;;
6149;SDS011;3106;42.670;23.318;2022-12-07T00:41:16;40.97;;;19.03;;
6149;SDS011;3106;42.670;23.318;2022-12-07T00:43:46;52.40;;;20.13;;
6149;SDS011;3106;42.670;23.318;2022-12-07T00:46:18;44.50;;;20.10;;
6149;SDS011;3106;42.670;23.318;2022-12-07T00:48:48;43.60;;;19.80;;
6149;SDS011;3106;42.670;23.318;2022-12-07T00:51:22;41.07;;;18.83;;
6149;SDS011;3106;42.670;23.318;2022-12-07T00:54:03;59.23;;;20.17;;
6149;SDS011;3106;42.670;23.318;2022-12-07T00:56:33;55.40;;;20.60;;
6149;SDS011;3106;42.670;23.318;2022-12-07T00:59:18;56.07;;;19.20;;
6149;SDS011;3106;42.670;23.318;2022-12-07T01:01:46;50.00;;;20.20;;
6149;SDS011;3106;42.670;23.318;2022-12-07T01:04:14;36.03;;;16.80;;
6149;SDS011;3106;42.670;23.318;2022-12-07T01:06:43;40.60;;;18.50;;
6149;SDS011;3106;42.670;23.318;2022-12-07T01:09:12;45.60;;;19.37;;
6149;SDS011;3106;42.670;23.318;2022-12-07T01:11:40;43.93;;;18.13;;
6149;SDS011;3106;42.670;23.318;2022-12-07T01:14:08;56.90;;;21.80;;
6149;SDS011;3106;42.670;23.318;2022-12-07T01:16:52;52.23;;;21.87;;
6149;SDS011;3106;42.670;23.318;2022-12-07T01:19:22;49.07;;;21.83;;
6149;SDS011;3106;42.670;23.318;2022-12-07T01:21:49;52.70;;;22.57;;
6149;SDS011;3106;42.670;23.318;2022-12-07T01:24:16;59.30;;;22.10;;
6149;SDS011;3106;42.670;23.318;2022-12-07T01:26:43;48.90;;;20.87;;
6149;SDS011;3106;42.670;23.318;2022-12-07T01:29:10;52.87;;;22.40;;
6149;SDS011;3106;42.670;23.318;2022-12-07T01:31:38;48.13;;;21.90;;
6149;SDS011;3106;42.670;23.318;2022-12-07T01:34:09;52.00;;;22.60;;
6149;SDS011;3106;42.670;23.318;2022-12-07T01:36:37;49.50;;;21.30;;
6149;SDS011;3106;42.670;23.318;2022-12-07T01:39:06;50.03;;;21.27;;
6149;SDS011;3106;42.670;23.318;2022-12-07T01:41:34;50.03;;;21.40;;
6149;SDS011;3106;42.670;23.318;2022-12-07T01:44:08;46.83;;;20.93;;
6149;SDS011;3106;42.670;23.318;2022-12-07T01:46:44;52.60;;;22.70;;
6149;SDS011;3106;42.670;23.318;2022-12-07T01:52:09;51.07;;;20.33;;
6149;SDS011;3106;42.670;23.318;2022-12-07T01:54:41;44.87;;;20.77;;
6149;SDS011;3106;42.670;23.318;2022-12-07T01:57:08;51.67;;;20.07;;
6149;SDS011;3106;42.670;23.318;2022-12-07T01:59:37;47.67;;;19.03;;
6149;SDS011;3106;42.670;23.318;2022-12-07T02:02:07;50.50;;;20.60;;
6149;SDS011;3106;42.670;23.318;2022-12-07T02:04:46;46.03;;;20.17;;
6149;SDS011;3106;42.670;23.318;2022-12-07T02:07:14;51.00;;;20.87;;
6149;SDS011;3106;42.670;23.318;2022-12-07T02:09:43;59.67;;;23.10;;
6149;SDS011;3106;42.670;23.318;2022-12-07T02:12:10;58.30;;;21.93;;
6149;SDS011;3106;42.670;23.318;2022-12-07T02:14:39;48.20;;;21.40;;
6149;SDS011;3106;42.670;23.318;2022-12-07T02:17:11;43.67;;;20.40;;
6149;SDS011;3106;42.670;23.318;2022-12-07T02:26:02;54.93;;;19.57;;
6149;SDS011;3106;42.670;23.318;2022-12-07T02:29:11;49.47;;;20.80;;
6149;SDS011;3106;42.670;23.318;2022-12-07T02:31:46;53.23;;;20.57;;
6149;SDS011;3106;42.670;23.318;2022-12-07T02:34:19;46.70;;;21.67;;
6149;SDS011;3106;42.670;23.318;2022-12-07T02:36:54;52.20;;;22.07;;
6149;SDS011;3106;42.670;23.318;2022-12-07T02:39:25;50.47;;;22.57;;
6149;SDS011;3106;42.670;23.318;2022-12-07T02:41:58;62.50;;;24.30;;
6149;SDS011;3106;42.670;23.318;2022-12-07T02:44:35;58.47;;;23.40;;
6149;SDS011;3106;42.670;23.318;2022-12-07T02:47:05;50.63;;;21.90;;
6149;SDS011;3106;42.670;23.318;2022-12-07T02:49:36;57.73;;;22.73;;
6149;SDS011;3106;42.670;23.318;2022-12-07T02:52:05;59.13;;;22.90;;
6149;SDS011;3106;42.670;23.318;2022-12-07T02:54:32;53.07;;;22.63;;
6149;SDS011;3106;42.670;23.318;2022-12-07T02:57:00;59.70;;;25.30;;
6149;SDS011;3106;42.670;23.318;2022-12-07T02:59:43;58.70;;;27.07;;
6149;SDS011;3106;42.670;23.318;2022-12-07T03:02:26;66.67;;;28.60;;
6149;SDS011;3106;42.670;23.318;2022-12-07T03:05:03;65.43;;;27.17;;
6149;SDS011;3106;42.670;23.318;2022-12-07T03:07:42;71.20;;;27.80;;
6149;SDS011;3106;42.670;23.318;2022-12-07T03:10:22;67.93;;;27.87;;
6149;SDS011;3106;42.670;23.318;2022-12-07T03:13:09;73.83;;;28.50;;
6149;SDS011;3106;42.670;23.318;2022-12-07T03:15:46;70.13;;;29.27;;
6149;SDS011;3106;42.670;23.318;2022-12-07T03:18:22;70.67;;;29.80;;
6149;SDS011;3106;42.670;23.318;2022-12-07T03:20:53;71.00;;;27.40;;
6149;SDS011;3106;42.670;23.318;2022-12-07T03:23:27;61.23;;;24.40;;
6149;SDS011;3106;42.670;23.318;2022-12-07T03:25:59;68.93;;;26.30;;
6149;SDS011;3106;42.670;23.318;2022-12-07T03:28:29;45.00;;;21.00;;
6149;SDS011;3106;42.670;23.318;2022-12-07T03:31:01;49.27;;;22.37;;
6149;SDS011;3106;42.670;23.318;2022-12-07T03:33:36;71.30;;;27.60;;
6149;SDS011;3106;42.670;23.318;2022-12-07T03:36:11;66.47;;;25.73;;
6149;SDS011;3106;42.670;23.318;2022-12-07T03:38:45;80.20;;;27.77;;
6149;SDS011;3106;42.670;23.318;2022-12-07T03:41:21;75.63;;;27.33;;
6149;SDS011;3106;42.670;23.318;2022-12-07T03:44:05;67.43;;;26.60;;
6149;SDS011;3106;42.670;23.318;2022-12-07T03:46:48;61.40;;;25.93;;
6149;SDS011;3106;42.670;23.318;2022-12-07T03:49:24;70.17;;;28.70;;
6149;SDS011;3106;42.670;23.318;2022-12-07T03:52:00;67.83;;;27.30;;
6149;SDS011;3106;42.670;23.318;2022-12-07T03:54:36;59.23;;;24.30;;
6149;SDS011;3106;42.670;23.318;2022-12-07T03:57:09;66.40;;;27.30;;
6149;SDS011;3106;42.670;23.318;2022-12-07T03:59:39;72.90;;;29.83;;
6149;SDS011;3106;42.670;23.318;2022-12-07T04:02:13;76.23;;;28.60;;
6149;SDS011;3106;42.670;23.318;2022-12-07T04:04:42;69.07;;;27.30;;
6149;SDS011;3106;42.670;23.318;2022-12-07T04:07:09;78.83;;;27.03;;
6149;SDS011;3106;42.670;23.318;2022-12-07T04:09:38;69.53;;;27.37;;
6149;SDS011;3106;42.670;23.318;2022-12-07T04:12:05;74.80;;;27.63;;
6149;SDS011;3106;42.670;23.318;2022-12-07T04:14:33;61.40;;;27.07;;
6149;SDS011;3106;42.670;23.318;2022-12-07T04:17:09;68.33;;;29.17;;
6149;SDS011;3106;42.670;23.318;2022-12-07T04:19:38;65.27;;;26.67;;
6149;SDS011;3106;42.670;23.318;2022-12-07T04:22:07;70.50;;;28.43;;
6149;SDS011;3106;42.670;23.318;2022-12-07T04:24:34;65.13;;;27.60;;
6149;SDS011;3106;42.670;23.318;2022-12-07T04:27:02;73.50;;;29.47;;
6149;SDS011;3106;42.670;23.318;2022-12-07T04:29:29;68.33;;;26.80;;
6149;SDS011;3106;42.670;23.318;2022-12-07T04:31:57;77.33;;;26.50;;
6149;SDS011;3106;42.670;23.318;2022-12-07T04:34:26;72.57;;;28.37;;
6149;SDS011;3106;42.670;23.318;2022-12-07T04:36:53;60.10;;;26.90;;
6149;SDS011;3106;42.670;23.318;2022-12-07T04:39:21;62.87;;;26.20;;
6149;SDS011;3106;42.670;23.318;2022-12-07T04:41:50;65.40;;;24.80;;
6149;SDS011;3106;42.670;23.318;2022-12-07T04:44:18;63.83;;;24.40;;
6149;SDS011;3106;42.670;23.318;2022-12-07T04:46:46;67.63;;;26.10;;
6149;SDS011;3106;42.670;23.318;2022-12-07T04:49:14;57.93;;;23.00;;
6149;SDS011;3106;42.670;23.318;2022-12-07T04:51:43;55.50;;;23.00;;
6149;SDS011;3106;42.670;23.318;2022-12-07T04:54:11;59.03;;;24.30;;
6149;SDS011;3106;42.670;23.318;2022-12-07T04:56:38;63.10;;;23.80;;
6149;SDS011;3106;42.670;23.318;2022-12-07T04:59:06;62.23;;;24.87;;
6149;SDS011;3106;42.670;23.318;2022-12-07T05:01:35;68.00;;;25.10;;
6149;SDS011;3106;42.670;23.318;2022-12-07T05:04:03;64.13;;;25.63;;
6149;SDS011;3106;42.670;23.318;2022-12-07T05:06:30;58.77;;;24.23;;
6149;SDS011;3106;42.670;23.318;2022-12-07T05:08:59;62.50;;;25.77;;
6149;SDS011;3106;42.670;23.318;2022-12-07T05:11:28;58.40;;;25.30;;
6149;SDS011;3106;42.670;23.318;2022-12-07T05:14:06;71.70;;;26.00;;
6149;SDS011;3106;42.670;23.318;2022-12-07T05:16:36;68.10;;;26.20;;
6149;SDS011;3106;42.670;23.318;2022-12-07T05:19:03;62.97;;;25.40;;
6149;SDS011;3106;42.670;23.318;2022-12-07T05:21:31;67.33;;;24.23;;
6149;SDS011;3106;42.670;23.318;2022-12-07T05:24:04;60.50;;;25.13;;
6149;SDS011;3106;42.670;23.318;2022-12-07T05:26:32;66.33;;;23.60;;
6149;SDS011;3106;42.670;23.318;2022-12-07T05:28:59;60.47;;;27.53;;
6149;SDS011;3106;42.670;23.318;2022-12-07T05:31:27;66.53;;;28.60;;
6149;SDS011;3106;42.670;23.318;2022-12-07T05:33:54;75.63;;;26.87;;
6149;SDS011;3106;42.670;23.318;2022-12-07T05:36:22;70.00;;;26.60;;
6149;SDS011;3106;42.670;23.318;2022-12-07T05:38:55;63.27;;;26.77;;
6149;SDS011;3106;42.670;23.318;2022-12-07T05:41:23;71.20;;;26.80;;
6149;SDS011;3106;42.670;23.318;2022-12-07T05:44:07;62.60;;;23.20;;
6149;SDS011;3106;42.670;23.318;2022-12-07T05:46:34;59.30;;;25.47;;
6149;SDS011;3106;42.670;23.318;2022-12-07T05:49:01;65.03;;;25.10;;
6149;SDS011;3106;42.670;23.318;2022-12-07T05:51:29;74.93;;;28.90;;
6149;SDS011;3106;42.670;23.318;2022-12-07T05:53:56;72.67;;;25.23;;
6149;SDS011;3106;42.670;23.318;2022-12-07T05:56:25;60.20;;;24.83;;
6149;SDS011;3106;42.670;23.318;2022-12-07T05:58:52;58.50;;;23.63;;
6149;SDS011;3106;42.670;23.318;2022-12-07T06:01:37;66.87;;;25.00;;
6149;SDS011;3106;42.670;23.318;2022-12-07T06:04:05;67.77;;;25.80;;
6149;SDS011;3106;42.670;23.318;2022-12-07T06:06:32;66.13;;;24.87;;
6149;SDS011;3106;42.670;23.318;2022-12-07T06:08:59;61.30;;;25.07;;
6149;SDS011;3106;42.670;23.318;2022-12-07T06:11:27;63.53;;;24.87;;
6149;SDS011;3106;42.670;23.318;2022-12-07T06:14:12;63.83;;;23.10;;
6149;SDS011;3106;42.670;23.318;2022-12-07T06:16:40;56.43;;;24.57;;
6149;SDS011;3106;42.670;23.318;2022-12-07T06:19:07;56.73;;;21.87;;
6149;SDS011;3106;42.670;23.318;2022-12-07T06:21:34;64.07;;;21.17;;
6149;SDS011;3106;42.670;23.318;2022-12-07T06:24:02;53.60;;;22.47;;
6149;SDS011;3106;42.670;23.318;2022-12-07T06:26:31;63.77;;;22.63;;
6149;SDS011;3106;42.670;23.318;2022-12-07T06:28:58;55.67;;;21.33;;
6149;SDS011;3106;42.670;23.318;2022-12-07T06:31:25;55.07;;;23.20;;
6149;SDS011;3106;42.670;23.318;2022-12-07T06:33:56;56.90;;;24.00;;
6149;SDS011;3106;42.670;23.318;2022-12-07T06:36:24;54.23;;;22.57;;
6149;SDS011;3106;42.670;23.318;2022-12-07T06:38:51;70.13;;;24.67;;
6149;SDS011;3106;42.670;23.318;2022-12-07T06:41:18;59.43;;;24.80;;
6149;SDS011;3106;42.670;23.318;2022-12-07T06:43:48;64.80;;;23.50;;
6149;SDS011;3106;42.670;23.318;2022-12-07T06:46:15;68.00;;;23.50;;
6149;SDS011;3106;42.670;23.318;2022-12-07T06:48:43;60.97;;;26.77;;
6149;SDS011;3106;42.670;23.318;2022-12-07T06:51:10;62.00;;;25.90;;
6149;SDS011;3106;42.670;23.318;2022-12-07T06:56:25;64.80;;;24.20;;
6149;SDS011;3106;42.670;23.318;2022-12-07T06:58:55;63.43;;;23.03;;
6149;SDS011;3106;42.670;23.318;2022-12-07T07:01:23;66.57;;;22.70;;
6149;SDS011;3106;42.670;23.318;2022-12-07T07:03:50;52.53;;;21.60;;
6149;SDS011;3106;42.670;23.318;2022-12-07T07:06:18;50.43;;;21.53;;
6149;SDS011;3106;42.670;23.318;2022-12-07T07:08:45;56.40;;;22.83;;
6149;SDS011;3106;42.670;23.318;2022-12-07T07:11:12;53.50;;;21.77;;
6149;SDS011;3106;42.670;23.318;2022-12-07T07:13:39;58.10;;;24.10;;
6149;SDS011;3106;42.670;23.318;2022-12-07T07:16:08;64.17;;;22.50;;
6149;SDS011;3106;42.670;23.318;2022-12-07T07:18:37;64.87;;;23.40;;
6149;SDS011;3106;42.670;23.318;2022-12-07T07:21:05;52.97;;;22.30;;
6149;SDS011;3106;42.670;23.318;2022-12-07T07:23:32;64.87;;;24.27;;
6149;SDS011;3106;42.670;23.318;2022-12-07T07:25:59;62.43;;;22.90;;
6149;SDS011;3106;42.670;23.318;2022-12-07T07:28:27;70.27;;;24.50;;
6149;SDS011;3106;42.670;23.318;2022-12-07T07:30:55;65.23;;;22.03;;
6149;SDS011;3106;42.670;23.318;2022-12-07T07:33:23;58.40;;;23.17;;
6149;SDS011;3106;42.670;23.318;2022-12-07T07:35:51;56.60;;;23.60;;
6149;SDS011;3106;42.670;23.318;2022-12-07T07:38:18;63.93;;;25.00;;
6149;SDS011;3106;42.670;23.318;2022-12-07T07:40:46;66.10;;;23.80;;
6149;SDS011;3106;42.670;23.318;2022-12-07T07:43:14;66.03;;;24.30;;
6149;SDS011;3106;42.670;23.318;2022-12-07T07:45:42;63.27;;;25.07;;
6149;SDS011;3106;42.670;23.318;2022-12-07T08:57:48;72.57;;;26.73;;
6149;SDS011;3106;42.670;23.318;2022-12-07T09:00:16;71.63;;;27.63;;
6149;SDS011;3106;42.670;23.318;2022-12-07T09:02:44;66.00;;;28.37;;
6149;SDS011;3106;42.670;23.318;2022-12-07T09:05:12;72.63;;;27.43;;
6149;SDS011;3106;42.670;23.318;2022-12-07T09:07:39;69.80;;;28.03;;
6149;SDS011;3106;42.670;23.318;2022-12-07T09:10:08;62.90;;;28.73;;
6149;SDS011;3106;42.670;23.318;2022-12-07T09:12:37;76.93;;;28.63;;
6149;SDS011;3106;42.670;23.318;2022-12-07T09:15:11;63.87;;;25.30;;
6149;SDS011;3106;42.670;23.318;2022-12-07T09:17:48;62.60;;;26.20;;
6149;SDS011;3106;42.670;23.318;2022-12-07T09:20:17;71.20;;;27.90;;
6149;SDS011;3106;42.670;23.318;2022-12-07T09:22:48;71.47;;;23.60;;
6149;SDS011;3106;42.670;23.318;2022-12-07T09:25:32;57.83;;;22.50;;
6149;SDS011;3106;42.670;23.318;2022-12-07T09:28:03;61.30;;;23.20;;
6149;SDS011;3106;42.670;23.318;2022-12-07T09:33:52;52.00;;;22.30;;
6149;SDS011;3106;42.670;23.318;2022-12-07T09:36:22;65.37;;;27.17;;
6149;SDS011;3106;42.670;23.318;2022-12-07T17:55:08;109.07;;;32.40;;
6149;SDS011;3106;42.670;23.318;2022-12-07T17:57:36;85.77;;;33.43;;
6149;SDS011;3106;42.670;23.318;2022-12-07T18:00:05;96.17;;;34.90;;
6149;SDS011;3106;42.670;23.318;2022-12-07T18:02:33;94.90;;;36.47;;
6149;SDS011;3106;42.670;23.318;2022-12-07T18:05:02;114.07;;;36.67;;
6149;SDS011;3106;42.670;23.318;2022-12-07T18:07:30;81.57;;;34.90;;
6149;SDS011;3106;42.670;23.318;2022-12-07T18:09:58;77.07;;;31.90;;
6149;SDS011;3106;42.670;23.318;2022-12-07T18:12:27;101.20;;;32.70;;
6149;SDS011;3106;42.670;23.318;2022-12-07T18:14:54;78.17;;;33.90;;
6149;SDS011;3106;42.670;23.318;2022-12-07T18:17:21;90.20;;;33.70;;
6149;SDS011;3106;42.670;23.318;2022-12-07T18:19:48;99.23;;;34.37;;
6149;SDS011;3106;42.670;23.318;2022-12-07T18:22:16;84.80;;;36.73;;
6149;SDS011;3106;42.670;23.318;2022-12-07T18:24:44;98.17;;;38.83;;
6149;SDS011;3106;42.670;23.318;2022-12-07T18:27:12;78.40;;;33.83;;
6149;SDS011;3106;42.670;23.318;2022-12-07T18:29:41;103.47;;;39.70;;
6149;SDS011;3106;42.670;23.318;2022-12-07T18:32:08;122.97;;;41.80;;
6149;SDS011;3106;42.670;23.318;2022-12-07T18:34:35;115.70;;;43.10;;
6149;SDS011;3106;42.670;23.318;2022-12-07T18:37:04;103.77;;;40.10;;
6149;SDS011;3106;42.670;23.318;2022-12-07T18:39:32;99.63;;;39.97;;
6149;SDS011;3106;42.670;23.318;2022-12-07T18:41:59;112.20;;;42.43;;
6149;SDS011;3106;42.670;23.318;2022-12-07T18:44:26;113.97;;;43.73;;
6149;SDS011;3106;42.670;23.318;2022-12-07T18:46:55;108.67;;;42.37;;
6149;SDS011;3106;42.670;23.318;2022-12-07T18:49:22;113.97;;;45.60;;
6149;SDS011;3106;42.670;23.318;2022-12-07T18:51:50;128.07;;;47.87;;
6149;SDS011;3106;42.670;23.318;2022-12-07T18:54:27;129.90;;;46.00;;
6149;SDS011;3106;42.670;23.318;2022-12-07T18:56:54;132.73;;;46.70;;
6149;SDS011;3106;42.670;23.318;2022-12-07T18:59:21;110.63;;;40.90;;
6149;SDS011;3106;42.670;23.318;2022-12-07T19:02:08;99.60;;;38.67;;
6149;SDS011;3106;42.670;23.318;2022-12-07T19:04:36;101.20;;;40.07;;
6149;SDS011;3106;42.670;23.318;2022-12-07T19:07:05;84.63;;;35.60;;
6149;SDS011;3106;42.670;23.318;2022-12-07T19:09:32;83.87;;;35.07;;
6149;SDS011;3106;42.670;23.318;2022-12-07T19:11:58;85.90;;;32.67;;
6149;SDS011;3106;42.670;23.318;2022-12-07T19:14:39;86.70;;;33.77;;
6149;SDS011;3106;42.670;23.318;2022-12-07T19:17:18;84.93;;;33.00;;
6149;SDS011;3106;42.670;23.318;2022-12-07T19:20:08;63.00;;;25.57;;
